Vasiliy Bozhenko — URHP — position and weather

sailwx.info

Track history (hours):
 
Tides and Currents Weather Stations Pressure Air Temp Water Temp Dewpoint Dewpoint Depression Visibility Wind Speed Wind Dir Waves Ship Positions

Vasiliy Bozhenko

Last reported at 2015-Dec-18 16:15 UTC. Time now 2016-Feb-11 06:35 UTC.
Position N 40°50' E 029°00'.
Warning: this ship's position is 54 days out of date.

Length 114 m; draft 3.8 m.

Type: Cargo ship. MMSI: 272085000.

Date/timePositionNaut miles runAvg speedWind from/ knotsBaromVisibWave heightAir tempDewpointWater temp
2015-Dec-18 16:15N 40°50' E 029°00'4 5.7
2015-Dec-18 15:30N 40°46' E 028°57'5 5.5
2015-Dec-18 14:32N 40°42' E 028°53'19 4.5
2015-Dec-18 10:13N 40°25' E 029°05'0 0.0
2015-Dec-17 11:15N 40°25' E 029°05'0 0.0
2015-Dec-17 10:33N 40°25' E 029°05'0 0.0
2015-Dec-17 09:16N 40°25' E 029°05'0 0.0
2015-Dec-17 08:30N 40°25' E 029°05'0 0.0
2015-Dec-17 07:24N 40°25' E 029°05'0 0.0
2015-Dec-17 06:31N 40°25' E 029°05'0 0.0
2015-Dec-17 05:22N 40°25' E 029°05'0 0.0
2015-Dec-17 04:28N 40°25' E 029°05'0 0.0
2015-Dec-17 03:28N 40°25' E 029°05'0 0.0
2015-Dec-17 02:22N 40°25' E 029°05'0 0.0
2015-Dec-17 01:10N 40°25' E 029°05'0 0.0
2015-Dec-17 00:16N 40°25' E 029°05'0 0.4
2015-Dec-16 23:33N 40°25' E 029°05'2 1.7
2015-Dec-16 22:29N 40°26' E 029°03'1 0.9
2015-Dec-16 21:33N 40°26' E 029°02'23 4.6
2015-Dec-16 16:31N 40°49' E 028°55'8 7.3
2015-Dec-16 15:28N 40°56' E 028°56'  
2015-Dec-13 22:33N 46°36' E 031°44'6 6.3
2015-Dec-13 21:33N 46°35' E 031°53'7 7.0
2015-Dec-13 20:32N 46°32' E 032°03'7 6.8
2015-Dec-13 19:34N 46°33' E 032°12'133 3.7
2015-Dec-12 07:21N 47°37' E 035°04'6 7.1
2015-Dec-12 06:34N 47°42' E 035°08'6 5.9
2015-Dec-12 05:34N 47°48' E 035°10'0 0.4
2015-Dec-12 04:27N 47°48' E 035°09'0 0.0
2015-Dec-12 03:33N 47°48' E 035°09'0 0.0
2015-Dec-12 02:33N 47°48' E 035°09'0 0.0
2015-Dec-12 01:33N 47°48' E 035°09'0 0.0
2015-Dec-12 00:33N 47°48' E 035°09'0 0.0
2015-Dec-11 23:33N 47°48' E 035°09'0 0.0
2015-Dec-11 22:33N 47°48' E 035°09'0 0.0
2015-Dec-11 21:33N 47°48' E 035°09'0 0.0
2015-Dec-11 20:33N 47°48' E 035°09'0 0.0
2015-Dec-11 19:27N 47°48' E 035°09'1 1.4
2015-Dec-11 18:29N 47°49' E 035°08'0 0.2
2015-Dec-11 17:29N 47°49' E 035°08'0 0.0
2015-Dec-11 16:29N 47°49' E 035°08'0 0.0
2015-Dec-11 15:29N 47°49' E 035°08'0 0.5
2015-Dec-11 14:33N 47°50' E 035°07'3 2.5
2015-Dec-11 13:30N 47°52' E 035°05'1 0.8
2015-Dec-11 12:33N 47°53' E 035°06'0 0.0
2015-Dec-11 11:33N 47°53' E 035°06'0 0.0
2015-Dec-11 10:33N 47°53' E 035°06'0 0.1
2015-Dec-11 09:33N 47°52' E 035°06'0 0.4
2015-Dec-11 08:28N 47°52' E 035°06'0 0.0
2015-Dec-11 07:28N 47°52' E 035°06'0 0.0
2015-Dec-11 06:28N 47°52' E 035°06'0 0.0
2015-Dec-11 05:28N 47°52' E 035°06'0 0.0
2015-Dec-11 04:22N 47°52' E 035°06'0 0.0
2015-Dec-11 03:28N 47°52' E 035°06'0 0.0
2015-Dec-11 02:28N 47°52' E 035°06'0 0.0
2015-Dec-11 01:28N 47°52' E 035°06'0 0.0
2015-Dec-11 00:28N 47°52' E 035°06'0 0.0
2015-Dec-10 23:28N 47°52' E 035°06'0 0.0
2015-Dec-10 22:28N 47°52' E 035°06'0 0.0
2015-Dec-10 21:28N 47°52' E 035°06'0 0.0
2015-Dec-10 20:28N 47°52' E 035°06'0 0.0
2015-Dec-10 19:28N 47°52' E 035°06'0 0.0
2015-Dec-10 18:28N 47°52' E 035°06'0 0.0
2015-Dec-10 17:28N 47°52' E 035°06'0 0.0
2015-Dec-10 16:28N 47°52' E 035°06'0 0.1
2015-Dec-10 15:28N 47°52' E 035°06'0 0.0
2015-Dec-10 14:28N 47°52' E 035°06'0 0.0
2015-Dec-10 13:28N 47°52' E 035°06'0 0.0
2015-Dec-10 12:28N 47°52' E 035°06'0 0.1
2015-Dec-10 11:28N 47°52' E 035°06'0 0.0
2015-Dec-10 10:32N 47°52' E 035°06'0 0.0
2015-Dec-10 09:32N 47°52' E 035°06'0 0.0
2015-Dec-10 08:32N 47°52' E 035°06'0 0.0
2015-Dec-10 07:32N 47°52' E 035°06'0 0.0
2015-Dec-10 06:32N 47°52' E 035°06'0 0.0
2015-Dec-10 05:32N 47°52' E 035°06'0 0.0
2015-Dec-10 04:26N 47°52' E 035°06'0 0.0
2015-Dec-10 03:32N 47°52' E 035°06'0 0.0
2015-Dec-10 02:32N 47°52' E 035°06'0 0.0
2015-Dec-10 01:32N 47°52' E 035°06'0 0.0
2015-Dec-10 00:32N 47°52' E 035°06'0 0.0
2015-Dec-09 23:32N 47°52' E 035°06'0 0.0
2015-Dec-09 22:32N 47°52' E 035°06'0 0.1
2015-Dec-09 21:32N 47°52' E 035°06'0 0.2
2015-Dec-09 20:32N 47°52' E 035°06'0 0.0
2015-Dec-09 19:32N 47°52' E 035°06'0 0.0
2015-Dec-09 18:32N 47°52' E 035°06'0 0.0
2015-Dec-09 17:32N 47°52' E 035°06'0 0.0
2015-Dec-09 16:32N 47°52' E 035°06'0 0.0
2015-Dec-09 15:32N 47°52' E 035°06'0 0.0
2015-Dec-09 14:32N 47°52' E 035°06'0 0.0
2015-Dec-09 13:32N 47°52' E 035°06'0 0.2
2015-Dec-09 12:34N 47°52' E 035°06'1 0.8
2015-Dec-09 11:33N 47°51' E 035°05'7 6.5
2015-Dec-09 10:33N 47°46' E 035°10'  
Track history (hours):
 
Tides and Currents Weather Stations Pressure Air Temp Water Temp Dewpoint Dewpoint Depression Visibility Wind Speed Wind Dir Waves Ship Positions

Vasiliy Bozhenko

Last reported at 2015-Dec-18 16:15 UTC. Time now 2016-Feb-11 06:35 UTC.
Position N 40°50' E 029°00'.
Warning: this ship's position is 54 days out of date.

Length 114 m; draft 3.8 m.

Type: Cargo ship. MMSI: 272085000.

Date/timePositionNaut miles runAvg speedWind from/ knotsBaromVisibWave heightAir tempDewpointWater temp
2015-Dec-18 16:15N 40°50' E 029°00'4 5.7
2015-Dec-18 15:30N 40°46' E 028°57'5 5.5
2015-Dec-18 14:32N 40°42' E 028°53'19 4.5
2015-Dec-18 10:13N 40°25' E 029°05'0 0.0
2015-Dec-17 11:15N 40°25' E 029°05'0 0.0
2015-Dec-17 10:33N 40°25' E 029°05'0 0.0
2015-Dec-17 09:16N 40°25' E 029°05'0 0.0
2015-Dec-17 08:30N 40°25' E 029°05'0 0.0
2015-Dec-17 07:24N 40°25' E 029°05'0 0.0
2015-Dec-17 06:31N 40°25' E 029°05'0 0.0
2015-Dec-17 05:22N 40°25' E 029°05'0 0.0
2015-Dec-17 04:28N 40°25' E 029°05'0 0.0
2015-Dec-17 03:28N 40°25' E 029°05'0 0.0
2015-Dec-17 02:22N 40°25' E 029°05'0 0.0
2015-Dec-17 01:10N 40°25' E 029°05'0 0.0
2015-Dec-17 00:16N 40°25' E 029°05'0 0.4
2015-Dec-16 23:33N 40°25' E 029°05'2 1.7
2015-Dec-16 22:29N 40°26' E 029°03'1 0.9
2015-Dec-16 21:33N 40°26' E 029°02'23 4.6
2015-Dec-16 16:31N 40°49' E 028°55'8 7.3
2015-Dec-16 15:28N 40°56' E 028°56'  
2015-Dec-13 22:33N 46°36' E 031°44'6 6.3
2015-Dec-13 21:33N 46°35' E 031°53'7 7.0
2015-Dec-13 20:32N 46°32' E 032°03'7 6.8
2015-Dec-13 19:34N 46°33' E 032°12'133 3.7
2015-Dec-12 07:21N 47°37' E 035°04'6 7.1
2015-Dec-12 06:34N 47°42' E 035°08'6 5.9
2015-Dec-12 05:34N 47°48' E 035°10'0 0.4
2015-Dec-12 04:27N 47°48' E 035°09'0 0.0
2015-Dec-12 03:33N 47°48' E 035°09'0 0.0
2015-Dec-12 02:33N 47°48' E 035°09'0 0.0
2015-Dec-12 01:33N 47°48' E 035°09'0 0.0
2015-Dec-12 00:33N 47°48' E 035°09'0 0.0
2015-Dec-11 23:33N 47°48' E 035°09'0 0.0
2015-Dec-11 22:33N 47°48' E 035°09'0 0.0
2015-Dec-11 21:33N 47°48' E 035°09'0 0.0
2015-Dec-11 20:33N 47°48' E 035°09'0 0.0
2015-Dec-11 19:27N 47°48' E 035°09'1 1.4
2015-Dec-11 18:29N 47°49' E 035°08'0 0.2
2015-Dec-11 17:29N 47°49' E 035°08'0 0.0
2015-Dec-11 16:29N 47°49' E 035°08'0 0.0
2015-Dec-11 15:29N 47°49' E 035°08'0 0.5
2015-Dec-11 14:33N 47°50' E 035°07'3 2.5
2015-Dec-11 13:30N 47°52' E 035°05'1 0.8
2015-Dec-11 12:33N 47°53' E 035°06'0 0.0
2015-Dec-11 11:33N 47°53' E 035°06'0 0.0
2015-Dec-11 10:33N 47°53' E 035°06'0 0.1
2015-Dec-11 09:33N 47°52' E 035°06'0 0.4
2015-Dec-11 08:28N 47°52' E 035°06'0 0.0
2015-Dec-11 07:28N 47°52' E 035°06'0 0.0
2015-Dec-11 06:28N 47°52' E 035°06'0 0.0
2015-Dec-11 05:28N 47°52' E 035°06'0 0.0
2015-Dec-11 04:22N 47°52' E 035°06'0 0.0
2015-Dec-11 03:28N 47°52' E 035°06'0 0.0
2015-Dec-11 02:28N 47°52' E 035°06'0 0.0
2015-Dec-11 01:28N 47°52' E 035°06'0 0.0
2015-Dec-11 00:28N 47°52' E 035°06'0 0.0
2015-Dec-10 23:28N 47°52' E 035°06'0 0.0
2015-Dec-10 22:28N 47°52' E 035°06'0 0.0
2015-Dec-10 21:28N 47°52' E 035°06'0 0.0
2015-Dec-10 20:28N 47°52' E 035°06'0 0.0
2015-Dec-10 19:28N 47°52' E 035°06'0 0.0
2015-Dec-10 18:28N 47°52' E 035°06'0 0.0
2015-Dec-10 17:28N 47°52' E 035°06'0 0.0
2015-Dec-10 16:28N 47°52' E 035°06'0 0.1
2015-Dec-10 15:28N 47°52' E 035°06'0 0.0
2015-Dec-10 14:28N 47°52' E 035°06'0 0.0
2015-Dec-10 13:28N 47°52' E 035°06'0 0.0
2015-Dec-10 12:28N 47°52' E 035°06'0 0.1
2015-Dec-10 11:28N 47°52' E 035°06'0 0.0
2015-Dec-10 10:32N 47°52' E 035°06'0 0.0
2015-Dec-10 09:32N 47°52' E 035°06'0 0.0
2015-Dec-10 08:32N 47°52' E 035°06'0 0.0
2015-Dec-10 07:32N 47°52' E 035°06'0 0.0
2015-Dec-10 06:32N 47°52' E 035°06'0 0.0
2015-Dec-10 05:32N 47°52' E 035°06'0 0.0
2015-Dec-10 04:26N 47°52' E 035°06'0 0.0
2015-Dec-10 03:32N 47°52' E 035°06'0 0.0
2015-Dec-10 02:32N 47°52' E 035°06'0 0.0
2015-Dec-10 01:32N 47°52' E 035°06'0 0.0
2015-Dec-10 00:32N 47°52' E 035°06'0 0.0
2015-Dec-09 23:32N 47°52' E 035°06'0 0.0
2015-Dec-09 22:32N 47°52' E 035°06'0 0.1
2015-Dec-09 21:32N 47°52' E 035°06'0 0.2
2015-Dec-09 20:32N 47°52' E 035°06'0 0.0
2015-Dec-09 19:32N 47°52' E 035°06'0 0.0
2015-Dec-09 18:32N 47°52' E 035°06'0 0.0
2015-Dec-09 17:32N 47°52' E 035°06'0 0.0
2015-Dec-09 16:32N 47°52' E 035°06'0 0.0
2015-Dec-09 15:32N 47°52' E 035°06'0 0.0
2015-Dec-09 14:32N 47°52' E 035°06'0 0.0
2015-Dec-09 13:32N 47°52' E 035°06'0 0.2
2015-Dec-09 12:34N 47°52' E 035°06'1 0.8
2015-Dec-09 11:33N 47°51' E 035°05'7 6.5
2015-Dec-09 10:33N 47°46' E 035°10'  

Dump ship's entire track history